Time;durP1;ratioP1;P1;durP2;ratioP2;P2;SDS_P1;SDS_P2;PMS_P1;PMS_P2;Temp;Humidity;BMP_temperature;BMP_pressure;BME280_temperature;BME280_humidity;BME280_pressure;Samples;Min_cycle;Max_cycle;Signal;HPM_P1;HPM_P2
2022/04/06 00:01:10;;;;;;;18.00;8.33;;;11.20;99.90;;;;;;4898572;29;20407;-69
2022/04/06 00:03:43;;;;;;;20.83;9.13;;;11.20;99.90;;;;;;4898623;29;20402;-69
2022/04/06 00:06:15;;;;;;;18.70;7.80;;;11.20;99.90;;;;;;4882240;29;20452;-69
2022/04/06 00:08:43;;;;;;;17.63;9.27;;;11.20;99.90;;;;;;4898470;29;20465;-69
2022/04/06 00:11:10;;;;;;;13.97;8.10;;;11.20;99.90;;;;;;4913011;29;20417;-69
2022/04/06 00:13:35;;;;;;;16.30;7.67;;;11.20;99.90;;;;;;4897113;29;20471;-69
2022/04/06 00:16:04;;;;;;;17.80;7.97;;;11.20;99.90;;;;;;4897230;29;20929;-68
2022/04/06 00:18:32;;;;;;;13.37;8.07;;;11.20;99.90;;;;;;4898318;29;20216;-69
2022/04/06 00:20:58;;;;;;;11.80;7.40;;;11.20;99.90;;;;;;4898351;29;20414;-69
2022/04/06 00:23:24;;;;;;;13.03;7.17;;;11.20;99.90;;;;;;4897321;29;20858;-69
2022/04/06 00:25:55;;;;;;;12.83;7.53;;;11.20;99.90;;;;;;4897144;29;20215;-69
2022/04/06 00:28:21;;;;;;;18.60;7.70;;;11.20;99.90;;;;;;4912805;29;20405;-69
2022/04/06 00:30:48;;;;;;;16.30;8.00;;;11.20;99.90;;;;;;4897232;29;20483;-69
2022/04/06 00:33:16;;;;;;;15.03;7.67;;;11.20;99.90;;;;;;4881414;29;20436;-69
2022/04/06 00:35:45;;;;;;;12.60;7.10;;;11.20;99.90;;;;;;4912674;29;20502;-69
2022/04/06 00:38:11;;;;;;;15.70;7.47;;;11.20;99.90;;;;;;4881291;29;20537;-69
2022/04/06 00:40:40;;;;;;;11.73;6.80;;;11.20;99.90;;;;;;4898067;29;20410;-69
2022/04/06 00:43:13;;;;;;;18.30;8.57;;;11.20;99.90;;;;;;4912702;29;20494;-69
2022/04/06 00:45:40;;;;;;;10.87;6.93;;;11.20;99.90;;;;;;4896914;29;20445;-69
2022/04/06 00:48:10;;;;;;;14.80;7.97;;;11.20;99.90;;;;;;4881871;29;20432;-69
2022/04/06 00:50:41;;;;;;;13.40;7.43;;;11.20;99.90;;;;;;4897048;29;20407;-69
2022/04/06 00:53:08;;;;;;;16.87;7.83;;;11.20;99.90;;;;;;4896937;29;20499;-69
2022/04/06 00:55:39;;;;;;;12.50;7.43;;;11.20;99.90;;;;;;4896715;29;20566;-69
2022/04/06 00:58:10;;;;;;;13.83;7.17;;;11.20;99.90;;;;;;4896713;29;20412;-69
2022/04/06 01:00:40;;;;;;;14.43;7.23;;;11.20;99.90;;;;;;4912504;29;20402;-69
2022/04/06 01:03:09;;;;;;;20.00;7.20;;;11.20;99.90;;;;;;4883531;29;20440;-69
2022/04/06 01:05:35;;;;;;;18.10;7.30;;;11.20;99.90;;;;;;4900418;29;20445;-69
2022/04/06 01:08:01;;;;;;;11.90;7.07;;;11.20;99.90;;;;;;4901721;29;20412;-69
2022/04/06 01:10:30;;;;;;;15.60;6.97;;;11.20;99.90;;;;;;4900606;29;20775;-69
2022/04/06 01:12:57;;;;;;;8.70;6.20;;;11.20;99.90;;;;;;4900417;29;20945;-69
2022/04/06 01:15:24;;;;;;;10.33;6.40;;;11.20;99.90;;;;;;4900464;29;20447;-69
2022/04/06 01:17:52;;;;;;;10.43;6.47;;;11.20;99.90;;;;;;4884960;29;20912;-69
2022/04/06 01:20:18;;;;;;;8.57;6.53;;;11.20;99.90;;;;;;4884463;29;20480;-69
2022/04/06 01:22:44;;;;;;;14.30;6.60;;;11.20;99.90;;;;;;4900459;29;20438;-69
2022/04/06 01:25:10;;;;;;;13.33;6.37;;;11.10;99.90;;;;;;4900215;29;20449;-69
2022/04/06 01:27:36;;;;;;;11.00;7.00;;;11.10;99.90;;;;;;4901280;29;20444;-69
2022/04/06 01:30:05;;;;;;;9.70;6.10;;;11.20;99.90;;;;;;4900284;29;20445;-69
2022/04/06 01:32:36;;;;;;;13.50;7.27;;;11.10;99.90;;;;;;4899952;29;20452;-69
2022/04/06 01:35:06;;;;;;;11.60;6.43;;;11.20;99.90;;;;;;4907876;29;20467;-70
2022/04/06 01:37:37;;;;;;;11.87;6.90;;;11.10;99.90;;;;;;4900761;29;20476;-70
2022/04/06 01:40:05;;;;;;;9.33;6.03;;;11.10;99.90;;;;;;4917285;29;20545;-70
2022/04/06 01:42:33;;;;;;;14.67;5.70;;;11.10;99.90;;;;;;4917324;29;20431;-70
2022/04/06 01:45:05;;;;;;;11.67;6.50;;;11.10;99.90;;;;;;4924419;29;20460;-70
2022/04/06 01:47:31;;;;;;;11.57;6.73;;;11.10;99.90;;;;;;4882670;29;20522;-70
2022/04/06 01:52:53;;;;;;;11.73;6.60;;;11.10;99.90;;;;;;4917234;29;20431;-70
2022/04/06 01:55:19;;;;;;;12.37;6.47;;;11.10;99.90;;;;;;4901779;29;20519;-70
2022/04/06 01:57:49;;;;;;;11.73;6.30;;;11.10;99.90;;;;;;4899295;29;20415;-70
2022/04/06 02:00:17;;;;;;;13.47;5.40;;;11.10;99.90;;;;;;4911904;29;20557;-70
2022/04/06 02:02:49;;;;;;;17.50;6.40;;;11.10;99.90;;;;;;4913954;29;20432;-70
2022/04/06 02:05:21;;;;;;;14.00;5.93;;;11.10;99.90;;;;;;4912503;29;20519;-70
2022/04/06 02:07:51;;;;;;;14.40;6.47;;;11.10;99.90;;;;;;4917095;29;20769;-70
2022/04/06 02:10:20;;;;;;;14.90;5.73;;;11.10;99.90;;;;;;4931192;29;20422;-70
2022/04/06 02:12:46;;;;;;;8.90;5.27;;;11.10;99.90;;;;;;4912984;29;20491;-70
2022/04/06 02:15:17;;;;;;;13.13;6.60;;;11.10;99.90;;;;;;4909387;29;20477;-70
2022/04/06 02:17:45;;;;;;;11.13;5.70;;;11.10;99.90;;;;;;4913646;29;20447;-70
2022/04/06 02:20:14;;;;;;;8.80;4.90;;;11.10;99.90;;;;;;4897658;29;20475;-70
2022/04/06 02:22:41;;;;;;;10.97;5.87;;;11.10;99.90;;;;;;4916711;29;20447;-70
2022/04/06 02:25:07;;;;;;;7.80;5.40;;;11.10;99.90;;;;;;4932308;29;20508;-70
2022/04/06 02:27:33;;;;;;;8.30;5.23;;;11.10;99.90;;;;;;4931952;29;20454;-70
2022/04/06 02:30:05;;;;;;;11.20;5.30;;;11.10;99.90;;;;;;4900832;29;20807;-70
2022/04/06 02:32:33;;;;;;;10.03;4.80;;;11.10;99.90;;;;;;4916618;29;20645;-70
2022/04/06 02:34:59;;;;;;;10.60;5.43;;;11.00;99.90;;;;;;4914293;29;20512;-70
2022/04/06 02:37:25;;;;;;;10.33;5.10;;;11.00;99.90;;;;;;4897437;29;20609;-70
2022/04/06 02:39:53;;;;;;;9.93;4.80;;;11.00;99.90;;;;;;4909515;29;21033;-70
2022/04/06 02:42:22;;;;;;;9.13;5.13;;;11.00;99.90;;;;;;4882210;29;20512;-70
2022/04/06 02:44:50;;;;;;;9.70;4.83;;;11.00;99.90;;;;;;4903183;29;20470;-70
2022/04/06 02:47:20;;;;;;;7.97;5.30;;;11.00;99.90;;;;;;4906738;29;20888;-70
2022/04/06 02:49:54;;;;;;;9.27;4.97;;;11.00;99.90;;;;;;4881866;29;20447;-70
2022/04/06 02:52:24;;;;;;;11.10;5.70;;;11.00;99.90;;;;;;4897198;29;20516;-70
2022/04/06 02:54:53;;;;;;;9.87;5.50;;;11.00;99.90;;;;;;4924195;29;20482;-70
2022/04/06 02:57:21;;;;;;;11.17;4.43;;;11.00;99.90;;;;;;4912833;29;20450;-70
2022/04/06 02:59:49;;;;;;;8.03;4.53;;;11.00;99.90;;;;;;4910566;29;20544;-70
2022/04/06 03:02:15;;;;;;;9.87;4.30;;;11.00;99.90;;;;;;4916068;29;20790;-70
2022/04/06 03:04:43;;;;;;;11.90;4.40;;;11.00;99.90;;;;;;4905679;29;20971;-70
2022/04/06 03:07:09;;;;;;;11.13;4.37;;;11.00;99.90;;;;;;4915825;29;20447;-70
2022/04/06 03:09:38;;;;;;;6.90;3.67;;;11.00;99.90;;;;;;4911161;29;20211;-70
2022/04/06 03:12:06;;;;;;;12.30;4.70;;;11.00;99.90;;;;;;4905118;29;20518;-70
2022/04/06 03:14:34;;;;;;;8.63;4.10;;;11.00;99.90;;;;;;4897287;29;20444;-70
2022/04/06 03:17:05;;;;;;;8.90;4.70;;;11.00;99.90;;;;;;4896849;29;20456;-70
2022/04/06 03:19:34;;;;;;;8.93;5.40;;;11.00;99.90;;;;;;4898411;29;20467;-70
2022/04/06 03:22:05;;;;;;;8.43;4.37;;;11.00;99.90;;;;;;4904487;29;20827;-70
2022/04/06 03:24:36;;;;;;;8.27;4.60;;;11.00;99.90;;;;;;4911537;29;20970;-70
2022/04/06 03:27:02;;;;;;;9.37;4.70;;;11.00;99.90;;;;;;4912487;29;20486;-70
2022/04/06 03:29:30;;;;;;;9.03;4.77;;;11.00;99.90;;;;;;4912131;29;20443;-70
2022/04/06 03:31:56;;;;;;;7.20;4.80;;;11.00;99.90;;;;;;4904556;29;20443;-70
2022/04/06 03:34:24;;;;;;;10.97;4.63;;;11.00;99.90;;;;;;4912346;29;20452;-70
2022/04/06 03:36:52;;;;;;;9.80;4.87;;;11.00;99.90;;;;;;4912490;29;20463;-70
2022/04/06 03:39:18;;;;;;;10.60;5.73;;;11.00;99.90;;;;;;4902935;29;21057;-70
2022/04/06 03:41:49;;;;;;;11.77;4.73;;;11.00;99.90;;;;;;4896611;29;20429;-70
2022/04/06 03:44:17;;;;;;;7.80;5.10;;;11.00;99.90;;;;;;4901314;29;20431;-70
2022/04/06 03:46:46;;;;;;;11.10;5.43;;;11.00;99.90;;;;;;4898242;29;20456;-70
2022/04/06 03:49:14;;;;;;;7.53;4.60;;;11.00;99.90;;;;;;4922540;29;20839;-70
2022/04/06 03:51:43;;;;;;;7.07;4.93;;;11.00;99.90;;;;;;4899721;29;20210;-70
2022/04/06 03:54:11;;;;;;;12.67;5.60;;;10.90;99.90;;;;;;4911157;29;20793;-70
2022/04/06 03:56:42;;;;;;;7.43;4.27;;;10.90;99.90;;;;;;4896172;29;20455;-70
2022/04/06 03:59:10;;;;;;;8.83;5.27;;;11.00;99.90;;;;;;4898325;29;20472;-70
2022/04/06 04:01:38;;;;;;;9.53;5.13;;;10.90;99.90;;;;;;4897283;29;20404;-70
2022/04/06 04:04:10;;;;;;;7.77;4.30;;;10.90;99.90;;;;;;4900840;29;20505;-70
2022/04/06 04:06:38;;;;;;;12.40;5.30;;;10.90;99.90;;;;;;4914776;29;20445;-70
2022/04/06 04:09:04;;;;;;;8.77;6.30;;;10.90;99.90;;;;;;4897546;29;20552;-70
2022/04/06 04:11:33;;;;;;;6.27;4.53;;;10.90;99.90;;;;;;4915858;29;20416;-70
2022/04/06 04:13:59;;;;;;;10.63;5.67;;;10.90;99.90;;;;;;4904960;29;20458;-70
2022/04/06 04:16:26;;;;;;;8.40;5.57;;;10.90;99.90;;;;;;4912223;29;20584;-69
2022/04/06 04:18:51;;;;;;;8.83;5.07;;;10.90;99.90;;;;;;4908740;29;20472;-70
2022/04/06 04:21:33;;;;;;;8.50;5.70;;;10.90;99.90;;;;;;4899151;29;20423;-70
2022/04/06 04:24:09;;;;;;;8.40;5.00;;;10.90;99.90;;;;;;4930448;29;20773;-69
2022/04/06 04:26:36;;;;;;;8.90;5.10;;;10.90;99.90;;;;;;4881270;29;20485;-70
2022/04/06 04:29:07;;;;;;;8.40;4.70;;;10.90;99.90;;;;;;4899129;29;20796;-69
2022/04/06 04:31:36;;;;;;;10.60;4.90;;;10.90;99.90;;;;;;4905567;29;20786;-72
2022/04/06 04:34:02;;;;;;;6.00;3.77;;;10.90;99.90;;;;;;4896878;29;20448;-71
2022/04/06 04:36:29;;;;;;;9.70;4.30;;;10.90;99.90;;;;;;4927281;29;20469;-75
2022/04/06 04:38:57;;;;;;;10.30;5.10;;;10.90;99.90;;;;;;4913279;29;20553;-75
2022/04/06 04:41:24;;;;;;;9.23;4.57;;;10.90;99.90;;;;;;4910498;29;20536;-75
2022/04/06 04:43:52;;;;;;;10.03;4.53;;;10.90;99.90;;;;;;4914865;29;20512;-75
2022/04/06 04:46:21;;;;;;;10.43;4.60;;;10.90;99.90;;;;;;4896923;29;20535;-75
2022/04/06 04:48:47;;;;;;;8.30;4.77;;;10.90;99.90;;;;;;4897873;29;20789;-75
2022/04/06 04:51:14;;;;;;;7.57;4.10;;;10.90;99.90;;;;;;4914161;29;20435;-75
2022/04/06 04:53:43;;;;;;;7.10;4.20;;;10.90;99.90;;;;;;4897019;29;20785;-75
2022/04/06 04:56:11;;;;;;;8.40;5.10;;;10.90;99.90;;;;;;4903492;29;20481;-75
2022/04/06 04:58:37;;;;;;;6.57;3.90;;;10.80;99.90;;;;;;4895548;29;20851;-75
2022/04/06 05:01:07;;;;;;;8.60;5.20;;;10.80;99.90;;;;;;4918888;29;20513;-75
2022/04/06 05:03:35;;;;;;;7.07;4.33;;;10.80;99.90;;;;;;4929572;29;20455;-75
2022/04/06 05:06:01;;;;;;;9.23;4.10;;;10.80;99.90;;;;;;4905373;29;20470;-75
2022/04/06 05:08:32;;;;;;;10.63;3.97;;;10.90;99.90;;;;;;4896474;29;20444;-75
2022/04/06 05:10:58;;;;;;;5.60;4.07;;;10.80;99.90;;;;;;4907198;29;20465;-75
2022/04/06 05:13:24;;;;;;;7.70;4.43;;;10.80;99.90;;;;;;4896631;29;20412;-76
2022/04/06 05:15:52;;;;;;;4.50;3.20;;;10.80;99.90;;;;;;4902184;29;20463;-74
2022/04/06 05:18:20;;;;;;;8.03;3.50;;;10.80;99.90;;;;;;4895284;29;20422;-75
2022/04/06 05:20:49;;;;;;;10.50;3.73;;;10.80;99.90;;;;;;4900385;29;20900;-75
2022/04/06 05:23:15;;;;;;;9.03;3.80;;;10.80;99.90;;;;;;4892284;29;20937;-75
2022/04/06 05:25:41;;;;;;;8.87;4.10;;;10.80;99.90;;;;;;4895197;29;20420;-76
2022/04/06 05:28:08;;;;;;;4.50;3.57;;;10.80;99.90;;;;;;4898020;29;20454;-76
2022/04/06 05:30:37;;;;;;;10.37;4.20;;;10.80;99.90;;;;;;4913153;29;20798;-76
2022/04/06 05:33:03;;;;;;;8.73;4.37;;;10.80;99.90;;;;;;4897387;29;20435;-76
2022/04/06 05:35:30;;;;;;;9.10;3.90;;;10.80;99.90;;;;;;4903374;29;20495;-76
2022/04/06 05:37:57;;;;;;;6.00;4.00;;;10.80;99.90;;;;;;4913394;29;20446;-76
2022/04/06 05:40:27;;;;;;;6.90;4.03;;;10.80;99.90;;;;;;4918614;29;20591;-76
2022/04/06 05:42:55;;;;;;;8.00;4.27;;;10.80;99.90;;;;;;4904188;29;20478;-76
2022/04/06 05:45:27;;;;;;;9.53;4.57;;;10.80;99.90;;;;;;4902868;29;20455;-76
2022/04/06 05:47:55;;;;;;;12.27;5.53;;;10.80;99.90;;;;;;4904260;29;20419;-77
2022/04/06 05:50:22;;;;;;;7.53;4.33;;;10.80;99.90;;;;;;4923830;29;21032;-77
2022/04/06 05:52:50;;;;;;;8.70;4.07;;;10.80;99.90;;;;;;4906527;29;20452;-77
2022/04/06 05:55:16;;;;;;;7.70;4.10;;;10.80;99.90;;;;;;4906718;29;20456;-76
2022/04/06 05:57:42;;;;;;;11.37;4.50;;;10.80;99.90;;;;;;4907822;29;20464;-76
2022/04/06 06:00:09;;;;;;;9.13;4.03;;;10.80;99.90;;;;;;4890737;29;20462;-77
2022/04/06 06:02:42;;;;;;;8.00;3.90;;;10.80;99.90;;;;;;4906844;29;20435;-77
2022/04/06 06:05:13;;;;;;;6.73;3.90;;;10.80;99.90;;;;;;4925103;29;20415;-77
2022/04/06 06:07:39;;;;;;;7.87;4.33;;;10.70;99.90;;;;;;4914082;29;20440;-76
2022/04/06 06:10:08;;;;;;;7.47;3.87;;;10.70;99.90;;;;;;4916751;29;20932;-76
2022/04/06 06:12:36;;;;;;;8.20;3.87;;;10.80;99.90;;;;;;4932819;29;20446;-76
2022/04/06 06:15:06;;;;;;;12.10;4.83;;;10.70;99.90;;;;;;4917105;29;20449;-76
2022/04/06 06:17:40;;;;;;;7.73;3.90;;;10.70;99.90;;;;;;4901182;29;20445;-76
2022/04/06 06:20:07;;;;;;;9.13;3.77;;;10.70;99.90;;;;;;4932443;29;20518;-76
2022/04/06 06:22:33;;;;;;;9.50;4.03;;;10.70;99.90;;;;;;4916902;29;20427;-76
2022/04/06 06:25:03;;;;;;;8.13;3.77;;;10.80;99.90;;;;;;4917928;29;20420;-77
2022/04/06 06:27:28;;;;;;;5.27;3.80;;;10.70;99.90;;;;;;4900922;29;20459;-76
2022/04/06 06:29:55;;;;;;;5.40;3.80;;;10.70;99.90;;;;;;4932531;29;20425;-77
2022/04/06 06:32:21;;;;;;;8.33;3.90;;;10.70;99.90;;;;;;4917642;29;20493;-76
2022/04/06 06:34:49;;;;;;;8.53;4.40;;;10.70;99.90;;;;;;4917705;29;20423;-77
2022/04/06 06:37:20;;;;;;;6.43;3.00;;;10.70;99.90;;;;;;4931979;29;20484;-76
2022/04/06 06:39:46;;;;;;;7.23;4.13;;;10.70;99.90;;;;;;4915829;29;20517;-76
2022/04/06 06:42:14;;;;;;;13.00;4.60;;;10.70;99.90;;;;;;4900506;29;20509;-77
2022/04/06 06:44:40;;;;;;;6.13;3.47;;;10.70;99.90;;;;;;4917638;29;20642;-76
2022/04/06 06:47:08;;;;;;;8.77;3.73;;;10.70;99.90;;;;;;4900859;29;20991;-76
2022/04/06 06:49:34;;;;;;;4.70;3.57;;;10.70;99.90;;;;;;4916152;29;20452;-76
2022/04/06 06:52:00;;;;;;;5.47;3.60;;;10.70;99.90;;;;;;4900370;29;20452;-76
2022/04/06 06:54:26;;;;;;;6.63;3.40;;;10.70;99.90;;;;;;4930766;29;20844;-76
2022/04/06 06:56:52;;;;;;;5.67;3.30;;;10.70;99.90;;;;;;4908969;29;20461;-76
2022/04/06 06:59:18;;;;;;;7.53;2.90;;;10.70;99.90;;;;;;4914434;29;20477;-76
2022/04/06 07:01:44;;;;;;;9.17;3.37;;;10.70;99.90;;;;;;4916174;29;20429;-77
2022/04/06 07:04:10;;;;;;;6.93;4.03;;;10.70;99.90;;;;;;4914627;29;20426;-76
2022/04/06 07:06:35;;;;;;;4.80;3.20;;;10.70;99.90;;;;;;4914653;29;21002;-76
2022/04/06 07:09:01;;;;;;;10.77;3.47;;;10.70;99.90;;;;;;4906943;29;20438;-76
2022/04/06 07:11:27;;;;;;;9.53;3.90;;;10.70;99.90;;;;;;4929426;29;20306;-76
2022/04/06 07:13:54;;;;;;;7.43;3.60;;;10.70;99.90;;;;;;4923304;29;20439;-76
2022/04/06 07:16:20;;;;;;;9.50;3.80;;;10.70;99.90;;;;;;4915736;29;20454;-76
2022/04/06 07:18:46;;;;;;;7.30;3.70;;;10.70;99.90;;;;;;4915067;29;20466;-76
2022/04/06 07:21:14;;;;;;;7.43;3.53;;;10.70;99.90;;;;;;4898438;29;20886;-76
2022/04/06 07:23:41;;;;;;;7.20;3.50;;;10.70;99.90;;;;;;4916049;29;20430;-77
2022/04/06 07:26:07;;;;;;;7.00;3.80;;;10.60;99.90;;;;;;4929617;29;20462;-77
2022/04/06 07:28:38;;;;;;;6.30;3.03;;;10.70;99.90;;;;;;4907727;29;20448;-77
2022/04/06 07:31:04;;;;;;;6.83;3.57;;;10.70;99.90;;;;;;4898536;29;20530;-76
2022/04/06 07:33:36;;;;;;;11.73;3.90;;;10.70;99.90;;;;;;4912041;29;20888;-77
2022/04/06 07:36:03;;;;;;;5.17;3.27;;;10.70;99.90;;;;;;4913049;29;20713;-77
2022/04/06 07:38:29;;;;;;;5.97;3.60;;;10.70;99.90;;;;;;4913520;29;20455;-77
2022/04/06 07:40:58;;;;;;;6.43;4.20;;;10.70;99.90;;;;;;4913969;29;20478;-76
2022/04/06 07:43:25;;;;;;;5.17;3.50;;;10.70;99.90;;;;;;4914163;29;20484;-77
2022/04/06 07:45:51;;;;;;;3.90;3.37;;;10.60;99.90;;;;;;4926914;29;20451;-76
2022/04/06 07:48:17;;;;;;;7.97;3.80;;;10.70;99.90;;;;;;4913778;29;20473;-77
2022/04/06 07:50:45;;;;;;;8.40;3.50;;;10.70;99.90;;;;;;4914886;29;20462;-76
2022/04/06 07:53:13;;;;;;;5.60;3.80;;;10.70;99.90;;;;;;4914005;29;20446;-77
2022/04/06 07:55:39;;;;;;;6.90;3.43;;;10.70;99.90;;;;;;4914345;29;20447;-77
2022/04/06 07:58:06;;;;;;;6.03;4.30;;;10.60;99.90;;;;;;4913849;29;20434;-77
2022/04/06 08:00:34;;;;;;;6.90;3.80;;;10.60;99.90;;;;;;4901303;29;20463;-77
2022/04/06 08:03:04;;;;;;;6.10;4.00;;;10.60;99.90;;;;;;4929116;29;21020;-77
2022/04/06 08:05:33;;;;;;;6.20;3.80;;;10.60;99.90;;;;;;4929167;29;20519;-77
2022/04/06 08:08:01;;;;;;;8.63;4.30;;;10.70;99.90;;;;;;4915330;29;20434;-77
2022/04/06 08:10:30;;;;;;;8.00;4.07;;;10.70;99.90;;;;;;4913373;29;20780;-76
2022/04/06 08:12:58;;;;;;;9.67;4.10;;;10.70;99.90;;;;;;4913476;29;20782;-77
2022/04/06 08:15:31;;;;;;;7.50;4.33;;;10.70;99.90;;;;;;4906922;29;20506;-77
2022/04/06 08:18:00;;;;;;;10.03;3.73;;;10.70;99.90;;;;;;4913731;29;20438;-77
2022/04/06 08:20:26;;;;;;;5.67;3.23;;;10.70;99.90;;;;;;4926009;29;20844;-77
2022/04/06 08:22:56;;;;;;;4.90;3.23;;;10.70;99.90;;;;;;4925819;29;20466;-77
2022/04/06 08:25:22;;;;;;;6.47;3.73;;;10.70;99.90;;;;;;4921754;29;20450;-77
2022/04/06 08:27:48;;;;;;;8.00;3.70;;;10.70;99.90;;;;;;4913455;29;20454;-77
2022/04/06 08:30:16;;;;;;;6.47;3.83;;;10.70;99.90;;;;;;4925971;29;20441;-77
2022/04/06 08:32:43;;;;;;;8.27;3.77;;;10.70;99.90;;;;;;4909755;29;20499;-77
2022/04/06 08:35:09;;;;;;;6.00;3.43;;;10.60;99.90;;;;;;4917689;29;20433;-77
2022/04/06 08:37:37;;;;;;;6.87;3.63;;;10.60;99.90;;;;;;4918274;29;20462;-77
2022/04/06 08:40:06;;;;;;;6.70;3.03;;;10.70;99.90;;;;;;4909803;29;20483;-76
2022/04/06 08:42:34;;;;;;;4.97;3.13;;;10.70;99.90;;;;;;4913514;29;20443;-77
2022/04/06 08:45:02;;;;;;;7.83;3.53;;;10.70;99.90;;;;;;4913520;29;20431;-77
2022/04/06 08:47:31;;;;;;;6.30;2.87;;;10.70;99.90;;;;;;4912795;29;20528;-77
2022/04/06 08:49:58;;;;;;;4.63;2.97;;;10.70;99.90;;;;;;4913508;29;20439;-77
2022/04/06 08:52:24;;;;;;;7.17;4.20;;;10.70;99.90;;;;;;4913459;29;20444;-77
2022/04/06 08:54:53;;;;;;;7.07;3.37;;;10.70;99.90;;;;;;4933207;29;20468;-77
2022/04/06 08:57:20;;;;;;;5.73;3.20;;;10.70;99.90;;;;;;4901977;29;20481;-76
2022/04/06 08:59:49;;;;;;;4.17;3.10;;;10.70;99.90;;;;;;4912863;29;21025;-77
2022/04/06 09:02:19;;;;;;;6.43;3.30;;;10.70;99.90;;;;;;4928668;29;20426;-77
2022/04/06 09:04:55;;;;;;;8.03;3.60;;;10.70;99.90;;;;;;4913215;29;20976;-77
2022/04/06 09:07:23;;;;;;;6.17;3.00;;;10.70;99.90;;;;;;4896798;29;20468;-77
2022/04/06 09:09:55;;;;;;;6.93;2.70;;;10.70;99.90;;;;;;4913338;29;20451;-77
2022/04/06 09:12:25;;;;;;;8.30;2.60;;;10.70;99.90;;;;;;4914042;29;20560;-76
2022/04/06 09:15:05;;;;;;;4.07;2.43;;;10.70;99.90;;;;;;4894400;29;20431;-76
2022/04/06 09:17:47;;;;;;;6.30;2.80;;;10.70;99.90;;;;;;4907449;29;20807;-77
2022/04/06 09:20:23;;;;;;;5.10;2.20;;;10.70;99.90;;;;;;4927646;29;20476;-77
2022/04/06 09:22:51;;;;;;;6.07;2.63;;;10.70;99.90;;;;;;4912652;29;21068;-77
2022/04/06 09:25:20;;;;;;;3.83;2.53;;;10.70;99.90;;;;;;4916784;29;20435;-77
2022/04/06 09:27:47;;;;;;;8.10;2.40;;;10.70;99.90;;;;;;4916561;29;21006;-77
2022/04/06 09:30:15;;;;;;;6.73;2.60;;;10.80;99.90;;;;;;4915641;29;20501;-77
2022/04/06 09:32:42;;;;;;;5.70;2.33;;;10.80;99.90;;;;;;4916628;29;20440;-76
2022/04/06 09:35:25;;;;;;;4.77;2.17;;;10.80;99.90;;;;;;4900398;29;20610;-76
2022/04/06 09:38:08;;;;;;;5.30;2.13;;;10.80;99.90;;;;;;4916090;29;20433;-76
2022/04/06 09:40:39;;;;;;;9.10;2.40;;;10.80;99.90;;;;;;4911829;29;20482;-76
2022/04/06 09:43:06;;;;;;;5.13;2.20;;;10.80;99.90;;;;;;4915444;29;20960;-77
2022/04/06 09:48:16;;;;;;;3.20;1.83;;;10.80;99.90;;;;;;4914545;29;20426;-77
2022/04/06 09:50:58;;;;;;;3.47;2.03;;;10.80;99.90;;;;;;4896219;29;20460;-76
2022/04/06 09:53:27;;;;;;;11.33;2.60;;;10.80;99.90;;;;;;4923967;29;20448;-77
2022/04/06 09:55:57;;;;;;;7.80;2.10;;;10.80;99.90;;;;;;4915929;29;20477;-77
2022/04/06 09:58:24;;;;;;;5.43;2.00;;;10.80;99.90;;;;;;4915417;29;20440;-77
2022/04/06 10:00:53;;;;;;;4.17;2.17;;;10.80;99.90;;;;;;4931532;29;20440;-77
2022/04/06 10:03:23;;;;;;;6.30;1.97;;;10.90;99.90;;;;;;4915698;29;20448;-76
2022/04/06 10:05:52;;;;;;;3.80;1.70;;;10.80;99.90;;;;;;4930501;29;20448;-76
2022/04/06 10:08:21;;;;;;;8.00;1.70;;;10.80;99.90;;;;;;4899946;29;20515;-77
2022/04/06 10:10:50;;;;;;;3.53;1.80;;;10.80;99.90;;;;;;4915642;29;20464;-77
2022/04/06 10:13:18;;;;;;;6.23;2.07;;;10.80;99.90;;;;;;4915514;29;20521;-76
2022/04/06 10:15:44;;;;;;;6.37;2.00;;;10.80;99.90;;;;;;4928623;29;20933;-76
2022/04/06 10:18:10;;;;;;;5.20;2.00;;;10.80;99.90;;;;;;4915182;29;20787;-77
2022/04/06 10:20:45;;;;;;;4.33;1.93;;;10.80;99.90;;;;;;4915636;29;20465;-76
2022/04/06 10:23:41;;;;;;;3.10;1.97;;;10.80;99.90;;;;;;4914739;29;20444;-74
2022/04/06 10:26:44;;;;;;;3.77;1.90;;;10.80;99.90;;;;;;4911317;29;21063;-77
2022/04/06 10:29:10;;;;;;;5.07;2.00;;;10.80;99.90;;;;;;4925818;29;20433;-78
2022/04/06 10:31:36;;;;;;;4.33;1.80;;;10.80;99.90;;;;;;4917149;29;20442;-75
2022/04/06 10:34:20;;;;;;;6.03;1.83;;;10.80;99.90;;;;;;4917362;29;20458;-75
2022/04/06 10:37:06;;;;;;;2.80;2.40;;;10.80;99.90;;;;;;4914983;29;20825;-74
2022/04/06 10:39:59;;;;;;;4.43;1.77;;;10.80;99.90;;;;;;4916142;29;20598;-74
2022/04/06 10:42:35;;;;;;;7.00;2.13;;;10.80;99.90;;;;;;4928064;29;20778;-78
2022/04/06 10:45:03;;;;;;;6.90;2.60;;;10.80;99.90;;;;;;4915669;29;20510;-77
2022/04/06 10:47:31;;;;;;;4.00;2.37;;;10.80;99.90;;;;;;4911636;29;20445;-77
2022/04/06 10:50:13;;;;;;;5.43;2.27;;;10.80;99.90;;;;;;4918462;29;20913;-77
2022/04/06 10:52:39;;;;;;;4.13;2.07;;;10.90;99.90;;;;;;4901828;29;20503;-76
2022/04/06 10:55:21;;;;;;;3.80;2.00;;;10.90;99.90;;;;;;4922495;29;20533;-76
2022/04/06 10:57:59;;;;;;;9.40;2.10;;;10.90;99.90;;;;;;4915949;29;20544;-81
2022/04/06 11:00:27;;;;;;;4.00;1.93;;;10.90;99.90;;;;;;4891941;29;21062;-76
2022/04/06 11:02:54;;;;;;;2.80;2.00;;;10.90;99.90;;;;;;4917712;29;20429;-74
2022/04/06 11:05:46;;;;;;;3.53;1.90;;;10.90;99.90;;;;;;4914536;29;20442;-74
2022/04/06 11:11:46;;;;;;;6.77;2.33;;;10.90;99.90;;;;;;4915813;29;20445;-76
2022/04/06 11:14:25;;;;;;;5.60;2.10;;;10.90;99.90;;;;;;4899471;29;20497;-76
2022/04/06 11:16:53;;;;;;;1.90;1.70;;;10.90;99.90;;;;;;4915532;29;20956;-76
2022/04/06 11:19:20;;;;;;;4.27;2.00;;;11.00;99.90;;;;;;4915542;29;20473;-76
2022/04/06 11:21:58;;;;;;;3.20;1.80;;;10.90;99.90;;;;;;4915097;29;20431;-76
2022/04/06 11:24:31;;;;;;;5.00;2.00;;;10.90;99.90;;;;;;4898312;29;20471;-76
2022/04/06 11:26:59;;;;;;;6.20;2.23;;;11.00;99.90;;;;;;4915180;29;20573;-76
2022/04/06 11:29:28;;;;;;;5.93;2.37;;;11.00;99.90;;;;;;4914869;29;20446;-76
2022/04/06 11:32:06;;;;;;;2.10;1.90;;;11.00;99.90;;;;;;4928026;29;20927;-75
2022/04/06 11:34:33;;;;;;;7.27;2.00;;;11.00;99.90;;;;;;4912494;29;20474;-76
2022/04/06 11:37:01;;;;;;;5.77;2.20;;;11.00;99.90;;;;;;4912040;29;20477;-76
2022/04/06 11:39:31;;;;;;;3.00;1.83;;;11.00;99.90;;;;;;4927628;29;20547;-76
2022/04/06 11:42:04;;;;;;;4.00;1.70;;;11.00;99.90;;;;;;4896318;29;20935;-76
2022/04/06 11:44:31;;;;;;;9.47;2.17;;;11.00;99.90;;;;;;4912948;29;20438;-76
2022/04/06 11:46:58;;;;;;;4.73;2.40;;;11.00;99.90;;;;;;4893370;29;20464;-76
2022/04/06 11:49:26;;;;;;;3.27;2.17;;;11.00;99.90;;;;;;4896355;29;20877;-76
2022/04/06 11:51:57;;;;;;;2.87;2.10;;;11.00;99.90;;;;;;4896475;29;20450;-76
2022/04/06 11:54:24;;;;;;;3.30;2.10;;;11.00;99.90;;;;;;4926838;29;20462;-76
2022/04/06 11:56:54;;;;;;;2.90;1.80;;;11.00;99.90;;;;;;4911794;29;20829;-76
2022/04/06 11:59:23;;;;;;;2.53;2.00;;;11.00;99.90;;;;;;4911815;29;20999;-76
2022/04/06 12:01:53;;;;;;;3.23;1.90;;;11.00;99.90;;;;;;4923745;29;20440;-76
2022/04/06 12:04:25;;;;;;;3.60;2.10;;;11.00;99.90;;;;;;4909854;29;20428;-76
2022/04/06 12:06:52;;;;;;;3.67;2.17;;;11.00;99.90;;;;;;4911656;29;20906;-76
2022/04/06 12:09:22;;;;;;;4.00;1.87;;;11.00;99.90;;;;;;4919109;29;20471;-76
2022/04/06 12:11:53;;;;;;;3.23;2.00;;;11.00;99.90;;;;;;4911775;29;20461;-76
2022/04/06 12:14:21;;;;;;;2.47;1.97;;;11.00;99.90;;;;;;4903497;29;20447;-76
2022/04/06 12:16:49;;;;;;;3.53;1.77;;;11.00;99.90;;;;;;4897339;29;20886;-76
2022/04/06 12:19:19;;;;;;;5.10;2.00;;;11.00;99.90;;;;;;4898135;29;20473;-75
2022/04/06 12:21:48;;;;;;;4.20;3.10;;;11.00;99.90;;;;;;4913701;29;20484;-76
2022/04/06 12:24:17;;;;;;;3.60;2.27;;;11.00;99.90;;;;;;4913519;29;20780;-75
2022/04/06 12:26:47;;;;;;;4.30;2.80;;;11.00;99.90;;;;;;4937162;29;20989;-75
2022/04/06 12:29:18;;;;;;;3.07;1.90;;;11.10;99.90;;;;;;4912243;29;21049;-75
2022/04/06 12:31:45;;;;;;;3.63;1.90;;;11.10;99.90;;;;;;4891567;29;20994;-75
2022/04/06 12:34:33;;;;;;;4.10;1.83;;;11.10;99.90;;;;;;4912717;29;20463;-75
2022/04/06 12:37:29;;;;;;;5.90;2.57;;;11.10;99.90;;;;;;4926751;29;20450;-75
2022/04/06 12:39:49;;;;;;;3.90;2.37;;;11.10;99.90;;;;;;4911023;29;20486;-75
2022/04/06 12:42:15;;;;;;;8.40;2.50;;;11.10;99.90;;;;;;4912855;29;20516;-75
2022/04/06 12:45:06;;;;;;;2.53;2.00;;;11.10;99.90;;;;;;4919286;29;20501;-75
2022/04/06 12:47:32;;;;;;;4.00;2.23;;;11.10;99.90;;;;;;4927987;29;20484;-75
2022/04/06 12:50:19;;;;;;;4.60;2.40;;;11.10;99.90;;;;;;4913973;29;20432;-75
2022/04/06 12:53:03;;;;;;;3.70;2.40;;;11.10;99.90;;;;;;4928208;29;20515;-75
2022/04/06 12:55:29;;;;;;;3.83;2.70;;;11.10;99.90;;;;;;4912721;29;20451;-75
2022/04/06 12:58:14;;;;;;;2.57;2.20;;;11.10;99.90;;;;;;4916296;29;20537;-75
2022/04/06 13:00:40;;;;;;;3.13;2.07;;;11.10;99.90;;;;;;4917586;29;20969;-75
2022/04/06 13:03:09;;;;;;;7.57;2.50;;;11.10;99.90;;;;;;4918355;29;20428;-75